sensor_id;sensor_type;location;lat;lon;timestamp;pressure;altitude;pressure_sealevel;temperature;humidity
64352;BME280;50680;52.626;-8.668;2023-04-06T00:00:49;101446.84;;;11.29;100.00
64352;BME280;50680;52.626;-8.668;2023-04-06T00:03:16;101441.78;;;11.26;100.00
64352;BME280;50680;52.626;-8.668;2023-04-06T00:05:43;101445.31;;;11.25;100.00
64352;BME280;50680;52.626;-8.668;2023-04-06T00:08:10;101439.22;;;11.25;100.00
64352;BME280;50680;52.626;-8.668;2023-04-06T00:10:37;101436.53;;;11.26;100.00
64352;BME280;50680;52.626;-8.668;2023-04-06T00:13:05;101441.06;;;11.23;100.00
64352;BME280;50680;52.626;-8.668;2023-04-06T00:15:32;101434.13;;;11.22;100.00
64352;BME280;50680;52.626;-8.668;2023-04-06T00:17:59;101435.28;;;11.16;100.00
64352;BME280;50680;52.626;-8.668;2023-04-06T00:20:26;101431.03;;;11.14;100.00
64352;BME280;50680;52.626;-8.668;2023-04-06T00:22:52;101426.78;;;11.11;100.00
64352;BME280;50680;52.626;-8.668;2023-04-06T00:25:20;101421.69;;;11.08;100.00
64352;BME280;50680;52.626;-8.668;2023-04-06T00:27:47;101428.63;;;11.09;100.00
64352;BME280;50680;52.626;-8.668;2023-04-06T00:30:14;101423.69;;;11.03;100.00
64352;BME280;50680;52.626;-8.668;2023-04-06T00:32:41;101428.47;;;11.12;100.00
64352;BME280;50680;52.626;-8.668;2023-04-06T00:35:08;101431.88;;;11.14;100.00
64352;BME280;50680;52.626;-8.668;2023-04-06T00:37:35;101432.81;;;11.13;100.00
64352;BME280;50680;52.626;-8.668;2023-04-06T00:40:02;101422.59;;;11.07;100.00
64352;BME280;50680;52.626;-8.668;2023-04-06T00:42:29;101418.59;;;11.00;100.00
64352;BME280;50680;52.626;-8.668;2023-04-06T00:44:58;101422.16;;;10.99;100.00
64352;BME280;50680;52.626;-8.668;2023-04-06T00:47:26;101409.72;;;10.85;100.00
64352;BME280;50680;52.626;-8.668;2023-04-06T00:49:56;101420.53;;;10.96;100.00
64352;BME280;50680;52.626;-8.668;2023-04-06T00:52:23;101420.75;;;10.91;100.00
64352;BME280;50680;52.626;-8.668;2023-04-06T00:54:50;101425.69;;;10.98;100.00
64352;BME280;50680;52.626;-8.668;2023-04-06T00:57:17;101425.47;;;11.02;100.00
64352;BME280;50680;52.626;-8.668;2023-04-06T00:59:45;101423.56;;;11.06;100.00
64352;BME280;50680;52.626;-8.668;2023-04-06T01:02:12;101419.06;;;11.08;100.00
64352;BME280;50680;52.626;-8.668;2023-04-06T01:04:39;101423.38;;;11.09;100.00
64352;BME280;50680;52.626;-8.668;2023-04-06T01:07:06;101419.69;;;11.13;100.00
64352;BME280;50680;52.626;-8.668;2023-04-06T01:09:32;101415.22;;;11.15;100.00
64352;BME280;50680;52.626;-8.668;2023-04-06T01:11:59;101410.19;;;11.10;100.00
64352;BME280;50680;52.626;-8.668;2023-04-06T01:14:27;101397.59;;;11.00;100.00
64352;BME280;50680;52.626;-8.668;2023-04-06T01:16:57;101399.69;;;11.10;100.00
64352;BME280;50680;52.626;-8.668;2023-04-06T01:19:24;101401.47;;;11.10;100.00
64352;BME280;50680;52.626;-8.668;2023-04-06T01:21:50;101400.00;;;11.04;100.00
64352;BME280;50680;52.626;-8.668;2023-04-06T01:24:20;101395.91;;;10.99;100.00
64352;BME280;50680;52.626;-8.668;2023-04-06T01:26:47;101399.31;;;11.01;100.00
64352;BME280;50680;52.626;-8.668;2023-04-06T01:29:14;101397.47;;;11.03;100.00
64352;BME280;50680;52.626;-8.668;2023-04-06T01:31:41;101403.69;;;11.00;100.00
64352;BME280;50680;52.626;-8.668;2023-04-06T01:34:08;101405.31;;;11.03;100.00
64352;BME280;50680;52.626;-8.668;2023-04-06T01:36:34;101400.16;;;11.01;100.00
64352;BME280;50680;52.626;-8.668;2023-04-06T01:39:01;101396.97;;;11.12;100.00
64352;BME280;50680;52.626;-8.668;2023-04-06T01:41:28;101387.25;;;10.97;100.00
64352;BME280;50680;52.626;-8.668;2023-04-06T01:43:55;101405.63;;;11.14;100.00
64352;BME280;50680;52.626;-8.668;2023-04-06T01:46:22;101398.47;;;11.18;100.00
64352;BME280;50680;52.626;-8.668;2023-04-06T01:48:49;101402.84;;;11.17;100.00
64352;BME280;50680;52.626;-8.668;2023-04-06T01:51:16;101397.84;;;11.13;100.00
64352;BME280;50680;52.626;-8.668;2023-04-06T01:53:43;101406.22;;;11.19;100.00
64352;BME280;50680;52.626;-8.668;2023-04-06T01:56:09;101407.03;;;11.21;100.00
64352;BME280;50680;52.626;-8.668;2023-04-06T01:58:36;101419.06;;;11.25;100.00
64352;BME280;50680;52.626;-8.668;2023-04-06T02:01:03;101416.75;;;11.02;100.00
64352;BME280;50680;52.626;-8.668;2023-04-06T02:03:30;101418.53;;;11.01;100.00
64352;BME280;50680;52.626;-8.668;2023-04-06T02:05:58;101424.94;;;10.96;100.00
64352;BME280;50680;52.626;-8.668;2023-04-06T02:08:24;101423.69;;;10.85;100.00
64352;BME280;50680;52.626;-8.668;2023-04-06T02:10:51;101423.19;;;10.77;100.00
64352;BME280;50680;52.626;-8.668;2023-04-06T02:13:18;101422.38;;;10.77;100.00
64352;BME280;50680;52.626;-8.668;2023-04-06T02:15:45;101403.97;;;10.59;100.00
64352;BME280;50680;52.626;-8.668;2023-04-06T02:18:12;101418.41;;;10.68;100.00
64352;BME280;50680;52.626;-8.668;2023-04-06T02:20:39;101417.84;;;10.61;100.00
64352;BME280;50680;52.626;-8.668;2023-04-06T02:23:05;101425.16;;;10.54;100.00
64352;BME280;50680;52.626;-8.668;2023-04-06T02:25:32;101425.09;;;10.56;100.00
64352;BME280;50680;52.626;-8.668;2023-04-06T02:27:59;101428.06;;;10.48;100.00
64352;BME280;50680;52.626;-8.668;2023-04-06T02:30:26;101409.88;;;10.45;100.00
64352;BME280;50680;52.626;-8.668;2023-04-06T02:32:53;101422.75;;;10.50;100.00
64352;BME280;50680;52.626;-8.668;2023-04-06T02:35:20;101428.94;;;10.30;100.00
64352;BME280;50680;52.626;-8.668;2023-04-06T02:37:46;101426.44;;;10.27;100.00
64352;BME280;50680;52.626;-8.668;2023-04-06T02:40:14;101424.72;;;10.26;100.00
64352;BME280;50680;52.626;-8.668;2023-04-06T02:42:40;101423.47;;;10.34;100.00
64352;BME280;50680;52.626;-8.668;2023-04-06T02:45:07;101432.34;;;10.32;100.00
64352;BME280;50680;52.626;-8.668;2023-04-06T02:47:34;101433.75;;;10.39;100.00
64352;BME280;50680;52.626;-8.668;2023-04-06T02:50:01;101426.66;;;10.41;100.00
64352;BME280;50680;52.626;-8.668;2023-04-06T02:52:28;101421.78;;;10.33;100.00
64352;BME280;50680;52.626;-8.668;2023-04-06T02:54:55;101427.75;;;10.37;100.00
64352;BME280;50680;52.626;-8.668;2023-04-06T02:57:22;101427.66;;;10.39;100.00
64352;BME280;50680;52.626;-8.668;2023-04-06T02:59:48;101421.50;;;10.40;100.00
64352;BME280;50680;52.626;-8.668;2023-04-06T03:02:15;101422.69;;;10.32;100.00
64352;BME280;50680;52.626;-8.668;2023-04-06T03:04:43;101426.09;;;10.34;100.00
64352;BME280;50680;52.626;-8.668;2023-04-06T03:07:10;101415.63;;;10.34;100.00
64352;BME280;50680;52.626;-8.668;2023-04-06T03:09:37;101412.78;;;10.39;100.00
64352;BME280;50680;52.626;-8.668;2023-04-06T03:12:05;101417.88;;;10.42;100.00
64352;BME280;50680;52.626;-8.668;2023-04-06T03:14:35;101409.53;;;10.34;100.00
64352;BME280;50680;52.626;-8.668;2023-04-06T03:17:02;101422.28;;;10.42;100.00
64352;BME280;50680;52.626;-8.668;2023-04-06T03:19:29;101424.97;;;10.40;100.00
64352;BME280;50680;52.626;-8.668;2023-04-06T03:21:55;101429.34;;;10.40;100.00
64352;BME280;50680;52.626;-8.668;2023-04-06T03:24:22;101426.19;;;10.33;100.00
64352;BME280;50680;52.626;-8.668;2023-04-06T03:26:49;101424.47;;;10.32;100.00
64352;BME280;50680;52.626;-8.668;2023-04-06T03:29:16;101423.66;;;10.31;100.00
64352;BME280;50680;52.626;-8.668;2023-04-06T03:31:43;101421.72;;;10.35;100.00
64352;BME280;50680;52.626;-8.668;2023-04-06T03:34:10;101418.94;;;10.38;100.00
64352;BME280;50680;52.626;-8.668;2023-04-06T03:36:37;101416.31;;;10.38;100.00
64352;BME280;50680;52.626;-8.668;2023-04-06T03:39:04;101416.31;;;10.38;100.00
64352;BME280;50680;52.626;-8.668;2023-04-06T03:41:31;101418.78;;;10.22;100.00
64352;BME280;50680;52.626;-8.668;2023-04-06T03:43:57;101418.13;;;10.17;100.00
64352;BME280;50680;52.626;-8.668;2023-04-06T03:46:24;101419.16;;;10.14;100.00
64352;BME280;50680;52.626;-8.668;2023-04-06T03:48:51;101414.69;;;10.16;100.00
64352;BME280;50680;52.626;-8.668;2023-04-06T03:51:18;101416.47;;;10.16;100.00
64352;BME280;50680;52.626;-8.668;2023-04-06T03:53:44;101417.81;;;10.06;100.00
64352;BME280;50680;52.626;-8.668;2023-04-06T03:56:11;101420.69;;;10.00;100.00
64352;BME280;50680;52.626;-8.668;2023-04-06T03:58:38;101431.78;;;9.86;100.00
64352;BME280;50680;52.626;-8.668;2023-04-06T04:01:05;101431.09;;;9.82;100.00
64352;BME280;50680;52.626;-8.668;2023-04-06T04:03:32;101435.66;;;9.77;100.00
64352;BME280;50680;52.626;-8.668;2023-04-06T04:05:58;101429.00;;;9.70;100.00
64352;BME280;50680;52.626;-8.668;2023-04-06T04:08:25;101434.59;;;9.62;100.00
64352;BME280;50680;52.626;-8.668;2023-04-06T04:10:52;101439.38;;;9.52;100.00
64352;BME280;50680;52.626;-8.668;2023-04-06T04:13:19;101445.31;;;9.35;100.00
64352;BME280;50680;52.626;-8.668;2023-04-06T04:15:46;101448.13;;;9.31;100.00
64352;BME280;50680;52.626;-8.668;2023-04-06T04:18:14;101456.31;;;9.23;100.00
64352;BME280;50680;52.626;-8.668;2023-04-06T04:20:41;101455.41;;;9.24;100.00
64352;BME280;50680;52.626;-8.668;2023-04-06T04:23:08;101451.19;;;9.20;100.00
64352;BME280;50680;52.626;-8.668;2023-04-06T04:25:34;101456.84;;;9.31;100.00
64352;BME280;50680;52.626;-8.668;2023-04-06T04:28:02;101460.06;;;9.38;100.00
64352;BME280;50680;52.626;-8.668;2023-04-06T04:30:29;101453.72;;;9.44;100.00
64352;BME280;50680;52.626;-8.668;2023-04-06T04:32:55;101459.19;;;9.58;100.00
64352;BME280;50680;52.626;-8.668;2023-04-06T04:35:22;101463.72;;;9.54;100.00
64352;BME280;50680;52.626;-8.668;2023-04-06T04:37:49;101468.75;;;9.59;100.00
64352;BME280;50680;52.626;-8.668;2023-04-06T04:40:16;101472.16;;;9.61;100.00
64352;BME280;50680;52.626;-8.668;2023-04-06T04:42:43;101473.47;;;9.71;100.00
64352;BME280;50680;52.626;-8.668;2023-04-06T04:45:11;101469.91;;;9.72;100.00
64352;BME280;50680;52.626;-8.668;2023-04-06T04:47:38;101472.34;;;9.77;100.00
64352;BME280;50680;52.626;-8.668;2023-04-06T04:50:05;101473.19;;;9.77;100.00
64352;BME280;50680;52.626;-8.668;2023-04-06T04:52:32;101473.47;;;9.71;100.00
64352;BME280;50680;52.626;-8.668;2023-04-06T04:54:59;101473.41;;;9.73;100.00
64352;BME280;50680;52.626;-8.668;2023-04-06T04:57:25;101472.81;;;9.66;100.00
64352;BME280;50680;52.626;-8.668;2023-04-06T04:59:52;101467.09;;;9.36;100.00
64352;BME280;50680;52.626;-8.668;2023-04-06T05:02:22;101481.00;;;9.38;100.00
64352;BME280;50680;52.626;-8.668;2023-04-06T05:04:49;101482.81;;;9.36;100.00
64352;BME280;50680;52.626;-8.668;2023-04-06T05:07:16;101479.41;;;9.34;100.00
64352;BME280;50680;52.626;-8.668;2023-04-06T05:09:45;101481.91;;;9.37;100.00
64352;BME280;50680;52.626;-8.668;2023-04-06T05:12:12;101488.28;;;9.52;100.00
64352;BME280;50680;52.626;-8.668;2023-04-06T05:14:38;101483.09;;;9.30;100.00
64352;BME280;50680;52.626;-8.668;2023-04-06T05:17:05;101488.75;;;9.39;100.00
64352;BME280;50680;52.626;-8.668;2023-04-06T05:19:32;101498.88;;;9.49;100.00
64352;BME280;50680;52.626;-8.668;2023-04-06T05:21:59;101494.28;;;9.54;100.00
64352;BME280;50680;52.626;-8.668;2023-04-06T05:24:26;101503.69;;;9.58;100.00
64352;BME280;50680;52.626;-8.668;2023-04-06T05:26:53;101512.50;;;9.57;100.00
64352;BME280;50680;52.626;-8.668;2023-04-06T05:29:19;101515.53;;;9.67;100.00
64352;BME280;50680;52.626;-8.668;2023-04-06T05:31:47;101523.09;;;9.74;100.00
64352;BME280;50680;52.626;-8.668;2023-04-06T05:34:15;101512.69;;;9.73;100.00
64352;BME280;50680;52.626;-8.668;2023-04-06T05:36:41;101518.69;;;9.75;100.00
64352;BME280;50680;52.626;-8.668;2023-04-06T05:39:08;101525.44;;;9.81;100.00
64352;BME280;50680;52.626;-8.668;2023-04-06T05:41:35;101523.28;;;9.70;100.00
64352;BME280;50680;52.626;-8.668;2023-04-06T05:44:02;101526.69;;;9.72;100.00
64352;BME280;50680;52.626;-8.668;2023-04-06T05:46:29;101511.44;;;9.61;100.00
64352;BME280;50680;52.626;-8.668;2023-04-06T05:48:56;101531.31;;;9.65;100.00
64352;BME280;50680;52.626;-8.668;2023-04-06T05:51:23;101533.88;;;9.67;100.00
64352;BME280;50680;52.626;-8.668;2023-04-06T05:53:49;101532.03;;;9.69;100.00
64352;BME280;50680;52.626;-8.668;2023-04-06T05:56:16;101532.44;;;9.59;100.00
64352;BME280;50680;52.626;-8.668;2023-04-06T05:58:43;101531.72;;;9.56;100.00
64352;BME280;50680;52.626;-8.668;2023-04-06T06:01:10;101531.25;;;9.46;100.00
64352;BME280;50680;52.626;-8.668;2023-04-06T06:03:37;101539.97;;;9.47;100.00
64352;BME280;50680;52.626;-8.668;2023-04-06T06:06:04;101539.91;;;9.48;100.00
64352;BME280;50680;52.626;-8.668;2023-04-06T06:08:31;101535.63;;;9.46;100.00
64352;BME280;50680;52.626;-8.668;2023-04-06T06:10:58;101538.78;;;9.54;100.00
64352;BME280;50680;52.626;-8.668;2023-04-06T06:13:25;101541.94;;;9.62;100.00
64352;BME280;50680;52.626;-8.668;2023-04-06T06:15:51;101546.00;;;9.69;100.00
64352;BME280;50680;52.626;-8.668;2023-04-06T06:18:18;101552.16;;;9.68;100.00
64352;BME280;50680;52.626;-8.668;2023-04-06T06:20:45;101555.44;;;9.73;100.00
64352;BME280;50680;52.626;-8.668;2023-04-06T06:23:12;101556.03;;;9.80;100.00
64352;BME280;50680;52.626;-8.668;2023-04-06T06:25:39;101559.47;;;9.81;100.00
64352;BME280;50680;52.626;-8.668;2023-04-06T06:28:05;101557.53;;;9.86;100.00
64352;BME280;50680;52.626;-8.668;2023-04-06T06:30:32;101558.28;;;9.88;100.00
64352;BME280;50680;52.626;-8.668;2023-04-06T06:32:59;101566.09;;;9.89;100.00
64352;BME280;50680;52.626;-8.668;2023-04-06T06:35:26;101566.38;;;9.83;100.00
64352;BME280;50680;52.626;-8.668;2023-04-06T06:37:53;101568.13;;;9.83;100.00
64352;BME280;50680;52.626;-8.668;2023-04-06T06:40:19;101571.56;;;9.85;100.00
64352;BME280;50680;52.626;-8.668;2023-04-06T06:42:50;101572.44;;;9.84;100.00
64352;BME280;50680;52.626;-8.668;2023-04-06T06:45:18;101581.09;;;9.86;100.00
64352;BME280;50680;52.626;-8.668;2023-04-06T06:47:45;101572.28;;;9.88;100.00
64352;BME280;50680;52.626;-8.668;2023-04-06T06:50:12;101571.81;;;9.99;100.00
64352;BME280;50680;52.626;-8.668;2023-04-06T06:52:39;101577.63;;;10.06;100.00
64352;BME280;50680;52.626;-8.668;2023-04-06T06:55:07;101574.41;;;10.20;100.00
64352;BME280;50680;52.626;-8.668;2023-04-06T06:57:34;101580.22;;;10.26;100.00
64352;BME280;50680;52.626;-8.668;2023-04-06T07:00:01;101581.28;;;10.43;100.00
64352;BME280;50680;52.626;-8.668;2023-04-06T07:02:28;101575.91;;;10.65;100.00
64352;BME280;50680;52.626;-8.668;2023-04-06T07:04:55;101571.44;;;10.86;100.00
64352;BME280;50680;52.626;-8.668;2023-04-06T07:07:22;101588.06;;;11.04;100.00
64352;BME280;50680;52.626;-8.668;2023-04-06T07:09:49;101588.19;;;11.02;100.00
64352;BME280;50680;52.626;-8.668;2023-04-06T07:12:15;101591.56;;;11.04;100.00
64352;BME280;50680;52.626;-8.668;2023-04-06T07:14:43;101576.19;;;10.97;100.00
64352;BME280;50680;52.626;-8.668;2023-04-06T07:17:09;101587.75;;;10.93;100.00
64352;BME280;50680;52.626;-8.668;2023-04-06T07:19:36;101598.03;;;10.78;100.00
64352;BME280;50680;52.626;-8.668;2023-04-06T07:22:03;101595.63;;;10.73;100.00
64352;BME280;50680;52.626;-8.668;2023-04-06T07:24:31;101606.19;;;10.72;100.00
64352;BME280;50680;52.626;-8.668;2023-04-06T07:26:58;101609.06;;;11.04;100.00
64352;BME280;50680;52.626;-8.668;2023-04-06T07:29:27;101617.31;;;11.52;100.00
64352;BME280;50680;52.626;-8.668;2023-04-06T07:31:54;101622.84;;;12.17;100.00
64352;BME280;50680;52.626;-8.668;2023-04-06T07:34:21;101624.97;;;12.93;100.00
64352;BME280;50680;52.626;-8.668;2023-04-06T07:36:48;101631.69;;;13.14;100.00
64352;BME280;50680;52.626;-8.668;2023-04-06T07:39:15;101628.97;;;13.00;100.00
64352;BME280;50680;52.626;-8.668;2023-04-06T07:41:42;101629.66;;;12.88;100.00
64352;BME280;50680;52.626;-8.668;2023-04-06T07:44:09;101639.81;;;12.94;100.00
64352;BME280;50680;52.626;-8.668;2023-04-06T07:46:36;101643.34;;;13.10;100.00
64352;BME280;50680;52.626;-8.668;2023-04-06T07:49:03;101649.16;;;13.79;100.00
64352;BME280;50680;52.626;-8.668;2023-04-06T07:51:30;101641.53;;;14.48;100.00
64352;BME280;50680;52.626;-8.668;2023-04-06T07:53:57;101641.00;;;15.28;100.00
64352;BME280;50680;52.626;-8.668;2023-04-06T07:56:24;101649.06;;;15.93;100.00
64352;BME280;50680;52.626;-8.668;2023-04-06T07:58:51;101645.09;;;16.65;100.00
64352;BME280;50680;52.626;-8.668;2023-04-06T08:01:19;101640.25;;;17.08;100.00
64352;BME280;50680;52.626;-8.668;2023-04-06T08:03:46;101648.28;;;17.20;100.00
64352;BME280;50680;52.626;-8.668;2023-04-06T08:06:14;101638.97;;;17.38;100.00
64352;BME280;50680;52.626;-8.668;2023-04-06T08:08:41;101642.63;;;17.73;100.00
64352;BME280;50680;52.626;-8.668;2023-04-06T08:11:09;101643.47;;;17.73;100.00
64352;BME280;50680;52.626;-8.668;2023-04-06T08:13:36;101658.38;;;17.63;100.00
64352;BME280;50680;52.626;-8.668;2023-04-06T08:16:03;101654.38;;;17.57;100.00
64352;BME280;50680;52.626;-8.668;2023-04-06T08:18:30;101656.09;;;17.58;100.00
64352;BME280;50680;52.626;-8.668;2023-04-06T08:20:56;101662.28;;;17.70;100.00
64352;BME280;50680;52.626;-8.668;2023-04-06T08:23:23;101660.53;;;17.58;100.00
64352;BME280;50680;52.626;-8.668;2023-04-06T08:25:50;101658.72;;;17.82;100.00
64352;BME280;50680;52.626;-8.668;2023-04-06T08:28:20;101645.72;;;17.66;100.00
64352;BME280;50680;52.626;-8.668;2023-04-06T08:30:47;101663.78;;;17.61;100.00
64352;BME280;50680;52.626;-8.668;2023-04-06T08:33:14;101664.78;;;17.96;100.00
64352;BME280;50680;52.626;-8.668;2023-04-06T08:35:42;101651.09;;;17.78;100.00
64352;BME280;50680;52.626;-8.668;2023-04-06T08:38:09;101662.41;;;17.69;100.00
64352;BME280;50680;52.626;-8.668;2023-04-06T08:40:37;101659.63;;;17.70;100.00
64352;BME280;50680;52.626;-8.668;2023-04-06T08:43:06;101655.56;;;17.77;100.00
64352;BME280;50680;52.626;-8.668;2023-04-06T08:45:35;101661.03;;;17.87;100.00
64352;BME280;50680;52.626;-8.668;2023-04-06T08:48:03;101661.53;;;17.92;100.00
64352;BME280;50680;52.626;-8.668;2023-04-06T08:50:30;101664.84;;;17.83;100.00
64352;BME280;50680;52.626;-8.668;2023-04-06T08:52:59;101669.81;;;18.12;100.00
64352;BME280;50680;52.626;-8.668;2023-04-06T08:55:26;101679.94;;;18.18;100.00
64352;BME280;50680;52.626;-8.668;2023-04-06T08:57:54;101676.09;;;17.62;100.00
64352;BME280;50680;52.626;-8.668;2023-04-06T09:00:22;101678.81;;;17.50;100.00
64352;BME280;50680;52.626;-8.668;2023-04-06T09:02:49;101679.19;;;16.31;100.00
64352;BME280;50680;52.626;-8.668;2023-04-06T09:05:19;101678.78;;;16.37;100.00
64352;BME280;50680;52.626;-8.668;2023-04-06T09:07:46;101681.31;;;16.51;100.00
64352;BME280;50680;52.626;-8.668;2023-04-06T09:10:12;101686.34;;;16.16;100.00
64352;BME280;50680;52.626;-8.668;2023-04-06T09:12:39;101695.28;;;16.53;100.00
64352;BME280;50680;52.626;-8.668;2023-04-06T09:15:18;101692.72;;;16.13;100.00
64352;BME280;50680;52.626;-8.668;2023-04-06T09:17:47;101697.06;;;16.27;100.00
64352;BME280;50680;52.626;-8.668;2023-04-06T09:20:14;101686.72;;;15.84;100.00
64352;BME280;50680;52.626;-8.668;2023-04-06T09:22:41;101699.34;;;15.66;100.00
64352;BME280;50680;52.626;-8.668;2023-04-06T09:25:09;101703.59;;;15.96;100.00
64352;BME280;50680;52.626;-8.668;2023-04-06T09:27:37;101703.34;;;16.65;100.00
64352;BME280;50680;52.626;-8.668;2023-04-06T09:32:32;101705.47;;;16.60;100.00
64352;BME280;50680;52.626;-8.668;2023-04-06T09:35:09;101714.59;;;16.03;100.00
64352;BME280;50680;52.626;-8.668;2023-04-06T09:37:35;101714.56;;;16.43;100.00
64352;BME280;50680;52.626;-8.668;2023-04-06T09:40:06;101710.69;;;15.95;100.00
64352;BME280;50680;52.626;-8.668;2023-04-06T09:42:34;101716.75;;;15.83;100.00
64352;BME280;50680;52.626;-8.668;2023-04-06T09:45:02;101718.22;;;15.60;100.00
64352;BME280;50680;52.626;-8.668;2023-04-06T09:47:30;101720.00;;;15.03;100.00
64352;BME280;50680;52.626;-8.668;2023-04-06T09:49:58;101725.13;;;15.21;100.00
64352;BME280;50680;52.626;-8.668;2023-04-06T09:52:27;101724.41;;;15.73;100.00
64352;BME280;50680;52.626;-8.668;2023-04-06T09:55:01;101734.84;;;15.62;100.00
64352;BME280;50680;52.626;-8.668;2023-04-06T10:00:05;101739.16;;;15.77;100.00
64352;BME280;50680;52.626;-8.668;2023-04-06T10:02:49;101740.88;;;16.19;100.00
64352;BME280;50680;52.626;-8.668;2023-04-06T10:05:27;101739.34;;;16.02;100.00
64352;BME280;50680;52.626;-8.668;2023-04-06T10:07:59;101744.88;;;16.77;100.00
64352;BME280;50680;52.626;-8.668;2023-04-06T10:10:28;101741.13;;;16.41;100.00
64352;BME280;50680;52.626;-8.668;2023-04-06T10:12:56;101738.69;;;16.38;100.00
64352;BME280;50680;52.626;-8.668;2023-04-06T10:15:23;101737.03;;;16.88;100.00
64352;BME280;50680;52.626;-8.668;2023-04-06T10:17:51;101752.72;;;16.91;100.00
64352;BME280;50680;52.626;-8.668;2023-04-06T10:20:27;101738.28;;;16.44;100.00
64352;BME280;50680;52.626;-8.668;2023-04-06T10:25:34;101740.28;;;16.41;100.00
64352;BME280;50680;52.626;-8.668;2023-04-06T10:28:08;101749.31;;;16.64;100.00
64352;BME280;50680;52.626;-8.668;2023-04-06T10:30:41;101753.09;;;16.34;100.00
64352;BME280;50680;52.626;-8.668;2023-04-06T10:33:16;101752.78;;;16.39;100.00
64352;BME280;50680;52.626;-8.668;2023-04-06T10:35:44;101759.16;;;16.09;100.00
64352;BME280;50680;52.626;-8.668;2023-04-06T10:38:11;101756.19;;;15.59;100.00
64352;BME280;50680;52.626;-8.668;2023-04-06T10:40:42;101760.88;;;16.10;100.00
64352;BME280;50680;52.626;-8.668;2023-04-06T10:43:22;101763.81;;;16.71;100.00
64352;BME280;50680;52.626;-8.668;2023-04-06T10:45:56;101769.38;;;16.94;100.00
64352;BME280;50680;52.626;-8.668;2023-04-06T10:48:23;101776.44;;;17.06;100.00
64352;BME280;50680;52.626;-8.668;2023-04-06T10:50:53;101772.84;;;17.07;100.00
64352;BME280;50680;52.626;-8.668;2023-04-06T10:53:25;101776.13;;;17.10;100.00
64352;BME280;50680;52.626;-8.668;2023-04-06T10:55:54;101773.69;;;17.20;100.00
64352;BME280;50680;52.626;-8.668;2023-04-06T10:58:26;101777.97;;;17.60;100.00
64352;BME280;50680;52.626;-8.668;2023-04-06T11:00:53;101774.69;;;17.80;100.00
64352;BME280;50680;52.626;-8.668;2023-04-06T11:03:20;101777.84;;;18.34;100.00
64352;BME280;50680;52.626;-8.668;2023-04-06T11:05:49;101776.94;;;18.11;100.00
64352;BME280;50680;52.626;-8.668;2023-04-06T11:08:26;101780.38;;;17.63;100.00
64352;BME280;50680;52.626;-8.668;2023-04-06T11:11:09;101783.31;;;17.71;100.00
64352;BME280;50680;52.626;-8.668;2023-04-06T11:16:33;101776.88;;;17.13;100.00
64352;BME280;50680;52.626;-8.668;2023-04-06T11:19:00;101782.72;;;16.92;100.00
64352;BME280;50680;52.626;-8.668;2023-04-06T11:21:36;101788.44;;;16.86;100.00
64352;BME280;50680;52.626;-8.668;2023-04-06T11:24:12;101790.63;;;16.79;100.00
64352;BME280;50680;52.626;-8.668;2023-04-06T11:26:49;101788.34;;;16.87;100.00
64352;BME280;50680;52.626;-8.668;2023-04-06T11:29:22;101793.50;;;17.27;100.00
64352;BME280;50680;52.626;-8.668;2023-04-06T11:31:51;101781.75;;;17.06;100.00
64352;BME280;50680;52.626;-8.668;2023-04-06T11:34:22;101785.84;;;17.48;100.00
64352;BME280;50680;52.626;-8.668;2023-04-06T11:36:54;101791.31;;;18.19;100.00
64352;BME280;50680;52.626;-8.668;2023-04-06T11:39:22;101794.78;;;17.72;100.00
64352;BME280;50680;52.626;-8.668;2023-04-06T11:41:51;101796.28;;;17.26;100.00
64352;BME280;50680;52.626;-8.668;2023-04-06T11:47:08;101795.56;;;18.57;100.00
64352;BME280;50680;52.626;-8.668;2023-04-06T11:49:42;101796.50;;;19.14;100.00
64352;BME280;50680;52.626;-8.668;2023-04-06T11:54:42;101802.38;;;19.86;100.00
64352;BME280;50680;52.626;-8.668;2023-04-06T11:57:08;101817.66;;;17.98;100.00
64352;BME280;50680;52.626;-8.668;2023-04-06T11:59:35;101813.28;;;16.83;100.00
64352;BME280;50680;52.626;-8.668;2023-04-06T12:02:03;101828.50;;;16.41;100.00
64352;BME280;50680;52.626;-8.668;2023-04-06T12:04:30;101823.09;;;16.15;100.00
64352;BME280;50680;52.626;-8.668;2023-04-06T12:06:58;101832.19;;;16.11;100.00
64352;BME280;50680;52.626;-8.668;2023-04-06T12:09:24;101841.06;;;16.10;100.00
64352;BME280;50680;52.626;-8.668;2023-04-06T12:11:51;101848.22;;;15.95;100.00
64352;BME280;50680;52.626;-8.668;2023-04-06T12:14:18;101843.38;;;16.02;100.00
64352;BME280;50680;52.626;-8.668;2023-04-06T12:16:45;101845.44;;;15.97;100.00
64352;BME280;50680;52.626;-8.668;2023-04-06T12:19:12;101850.47;;;16.29;100.00
64352;BME280;50680;52.626;-8.668;2023-04-06T12:21:39;101841.53;;;16.17;100.00
64352;BME280;50680;52.626;-8.668;2023-04-06T12:24:06;101840.25;;;16.37;100.00
64352;BME280;50680;52.626;-8.668;2023-04-06T12:26:34;101823.66;;;16.61;100.00
64352;BME280;50680;52.626;-8.668;2023-04-06T12:29:01;101836.13;;;16.99;100.00
64352;BME280;50680;52.626;-8.668;2023-04-06T12:31:37;101836.88;;;17.39;100.00
64352;BME280;50680;52.626;-8.668;2023-04-06T12:34:06;101835.72;;;17.93;100.00
64352;BME280;50680;52.626;-8.668;2023-04-06T12:36:33;101833.97;;;18.29;100.00
64352;BME280;50680;52.626;-8.668;2023-04-06T12:39:00;101831.19;;;18.55;100.00
64352;BME280;50680;52.626;-8.668;2023-04-06T12:41:28;101818.00;;;18.89;100.00
64352;BME280;50680;52.626;-8.668;2023-04-06T12:43:54;101819.63;;;18.67;100.00
64352;BME280;50680;52.626;-8.668;2023-04-06T12:46:22;101825.72;;;18.56;100.00
64352;BME280;50680;52.626;-8.668;2023-04-06T12:48:50;101826.84;;;19.01;100.00
64352;BME280;50680;52.626;-8.668;2023-04-06T12:51:20;101828.63;;;18.89;100.00